sensor_id;sensor_type;location;lat;lon;timestamp;pressure;altitude;pressure_sealevel;temperature;humidity
63552;BME280;49698;48.072;7.800;2022-12-17T00:01:06;99806.91;;;-3.47;91.42
63552;BME280;49698;48.072;7.800;2022-12-17T00:03:52;99806.38;;;-3.42;91.20
63552;BME280;49698;48.072;7.800;2022-12-17T00:06:37;99801.56;;;-3.39;91.07
63552;BME280;49698;48.072;7.800;2022-12-17T00:09:23;99794.28;;;-3.37;91.10
63552;BME280;49698;48.072;7.800;2022-12-17T00:12:12;99804.63;;;-3.35;91.12
63552;BME280;49698;48.072;7.800;2022-12-17T00:15:04;99809.63;;;-3.40;91.43
63552;BME280;49698;48.072;7.800;2022-12-17T00:17:49;99817.53;;;-3.40;91.79
63552;BME280;49698;48.072;7.800;2022-12-17T00:20:34;99821.31;;;-3.43;92.10
63552;BME280;49698;48.072;7.800;2022-12-17T00:23:20;99828.84;;;-3.40;92.24
63552;BME280;49698;48.072;7.800;2022-12-17T00:26:05;99833.09;;;-3.39;92.17
63552;BME280;49698;48.072;7.800;2022-12-17T00:28:54;99825.84;;;-3.37;92.05
63552;BME280;49698;48.072;7.800;2022-12-17T00:31:39;99829.09;;;-3.35;92.12
63552;BME280;49698;48.072;7.800;2022-12-17T00:34:25;99840.78;;;-3.37;92.34
63552;BME280;49698;48.072;7.800;2022-12-17T00:37:10;99839.06;;;-3.45;92.26
63552;BME280;49698;48.072;7.800;2022-12-17T00:39:56;99844.53;;;-3.47;92.70
63552;BME280;49698;48.072;7.800;2022-12-17T00:42:41;99843.88;;;-3.49;93.01
63552;BME280;49698;48.072;7.800;2022-12-17T00:45:28;99848.69;;;-3.52;92.85
63552;BME280;49698;48.072;7.800;2022-12-17T00:48:13;99841.78;;;-3.53;92.93
63552;BME280;49698;48.072;7.800;2022-12-17T00:50:59;99840.81;;;-3.52;92.75
63552;BME280;49698;48.072;7.800;2022-12-17T00:53:45;99841.44;;;-3.50;92.88
63552;BME280;49698;48.072;7.800;2022-12-17T00:56:31;99846.69;;;-3.50;92.90
63552;BME280;49698;48.072;7.800;2022-12-17T00:59:17;99848.50;;;-3.51;92.78
63552;BME280;49698;48.072;7.800;2022-12-17T01:02:03;99845.53;;;-3.48;93.17
63552;BME280;49698;48.072;7.800;2022-12-17T01:04:49;99840.16;;;-3.54;93.03
63552;BME280;49698;48.072;7.800;2022-12-17T01:07:35;99838.69;;;-3.57;92.80
63552;BME280;49698;48.072;7.800;2022-12-17T01:10:20;99846.13;;;-3.60;93.15
63552;BME280;49698;48.072;7.800;2022-12-17T01:13:06;99851.03;;;-3.57;93.47
63552;BME280;49698;48.072;7.800;2022-12-17T01:15:51;99848.25;;;-3.56;93.38
63552;BME280;49698;48.072;7.800;2022-12-17T01:18:38;99852.28;;;-3.53;93.08
63552;BME280;49698;48.072;7.800;2022-12-17T01:21:32;99843.44;;;-3.52;93.29
63552;BME280;49698;48.072;7.800;2022-12-17T01:24:17;99853.94;;;-3.52;93.30
63552;BME280;49698;48.072;7.800;2022-12-17T01:27:04;99849.06;;;-3.55;93.15
63552;BME280;49698;48.072;7.800;2022-12-17T01:29:50;99847.47;;;-3.64;93.63
63552;BME280;49698;48.072;7.800;2022-12-17T01:32:36;99848.47;;;-3.65;93.79
63552;BME280;49698;48.072;7.800;2022-12-17T01:35:23;99852.13;;;-3.66;93.78
63552;BME280;49698;48.072;7.800;2022-12-17T01:38:10;99857.84;;;-3.63;93.38
63552;BME280;49698;48.072;7.800;2022-12-17T01:40:56;99857.28;;;-3.58;93.49
63552;BME280;49698;48.072;7.800;2022-12-17T01:43:41;99866.16;;;-3.59;93.46
63552;BME280;49698;48.072;7.800;2022-12-17T01:46:29;99865.53;;;-3.61;93.20
63552;BME280;49698;48.072;7.800;2022-12-17T01:49:17;99867.53;;;-3.63;93.40
63552;BME280;49698;48.072;7.800;2022-12-17T01:52:07;99876.38;;;-3.64;93.83
63552;BME280;49698;48.072;7.800;2022-12-17T01:54:53;99874.75;;;-3.65;94.18
63552;BME280;49698;48.072;7.800;2022-12-17T01:57:39;99875.09;;;-3.69;94.16
63552;BME280;49698;48.072;7.800;2022-12-17T02:00:25;99878.13;;;-3.72;94.38
63552;BME280;49698;48.072;7.800;2022-12-17T02:03:12;99891.53;;;-3.66;94.77
63552;BME280;49698;48.072;7.800;2022-12-17T02:06:02;99895.63;;;-3.64;94.08
63552;BME280;49698;48.072;7.800;2022-12-17T02:09:00;99898.41;;;-3.65;94.24
63552;BME280;49698;48.072;7.800;2022-12-17T02:11:51;99898.13;;;-3.71;94.01
63552;BME280;49698;48.072;7.800;2022-12-17T02:14:44;99894.50;;;-3.70;94.18
63552;BME280;49698;48.072;7.800;2022-12-17T02:17:43;99893.22;;;-3.74;93.80
63552;BME280;49698;48.072;7.800;2022-12-17T02:20:38;99893.91;;;-3.80;94.09
63552;BME280;49698;48.072;7.800;2022-12-17T02:23:34;99897.91;;;-3.84;94.29
63552;BME280;49698;48.072;7.800;2022-12-17T02:26:34;99897.16;;;-3.92;94.18
63552;BME280;49698;48.072;7.800;2022-12-17T02:29:21;99897.41;;;-4.02;94.77
63552;BME280;49698;48.072;7.800;2022-12-17T02:32:09;99902.81;;;-4.04;94.68
63552;BME280;49698;48.072;7.800;2022-12-17T02:34:57;99902.00;;;-4.04;94.81
63552;BME280;49698;48.072;7.800;2022-12-17T02:37:45;99905.63;;;-4.05;95.16
63552;BME280;49698;48.072;7.800;2022-12-17T02:40:32;99908.25;;;-4.05;94.79
63552;BME280;49698;48.072;7.800;2022-12-17T02:43:22;99909.59;;;-4.09;95.09
63552;BME280;49698;48.072;7.800;2022-12-17T02:46:09;99916.81;;;-4.11;94.73
63552;BME280;49698;48.072;7.800;2022-12-17T02:48:54;99924.59;;;-4.18;94.93
63552;BME280;49698;48.072;7.800;2022-12-17T02:51:40;99924.13;;;-4.22;95.23
63552;BME280;49698;48.072;7.800;2022-12-17T02:54:32;99926.75;;;-4.22;95.16
63552;BME280;49698;48.072;7.800;2022-12-17T02:57:18;99927.44;;;-4.28;95.40
63552;BME280;49698;48.072;7.800;2022-12-17T03:00:10;99930.06;;;-4.28;95.18
63552;BME280;49698;48.072;7.800;2022-12-17T03:02:59;99925.00;;;-4.29;95.11
63552;BME280;49698;48.072;7.800;2022-12-17T03:05:44;99930.72;;;-4.26;95.09
63552;BME280;49698;48.072;7.800;2022-12-17T03:08:30;99933.97;;;-4.24;95.43
63552;BME280;49698;48.072;7.800;2022-12-17T03:11:16;99936.59;;;-4.24;95.30
63552;BME280;49698;48.072;7.800;2022-12-17T03:14:01;99932.16;;;-4.23;95.45
63552;BME280;49698;48.072;7.800;2022-12-17T03:16:48;99940.84;;;-4.23;95.30
63552;BME280;49698;48.072;7.800;2022-12-17T03:19:33;99941.03;;;-4.24;95.11
63552;BME280;49698;48.072;7.800;2022-12-17T03:22:19;99945.63;;;-4.26;95.46
63552;BME280;49698;48.072;7.800;2022-12-17T03:25:05;99954.34;;;-4.26;95.58
63552;BME280;49698;48.072;7.800;2022-12-17T03:27:50;99936.78;;;-4.25;95.53
63552;BME280;49698;48.072;7.800;2022-12-17T03:30:36;99955.63;;;-4.22;95.32
63552;BME280;49698;48.072;7.800;2022-12-17T03:33:22;99958.25;;;-4.22;95.39
63552;BME280;49698;48.072;7.800;2022-12-17T03:36:08;99962.03;;;-4.24;95.68
63552;BME280;49698;48.072;7.800;2022-12-17T03:38:53;99960.56;;;-4.27;95.91
63552;BME280;49698;48.072;7.800;2022-12-17T03:41:39;99965.00;;;-4.27;95.79
63552;BME280;49698;48.072;7.800;2022-12-17T03:44:25;99958.13;;;-4.28;95.87
63552;BME280;49698;48.072;7.800;2022-12-17T03:47:10;99965.81;;;-4.27;95.68
63552;BME280;49698;48.072;7.800;2022-12-17T03:49:57;99967.47;;;-4.26;95.62
63552;BME280;49698;48.072;7.800;2022-12-17T03:52:43;99967.28;;;-4.24;95.88
63552;BME280;49698;48.072;7.800;2022-12-17T03:55:29;99964.66;;;-4.24;95.46
63552;BME280;49698;48.072;7.800;2022-12-17T03:58:14;99975.97;;;-4.24;95.86
63552;BME280;49698;48.072;7.800;2022-12-17T04:01:00;99964.66;;;-4.24;95.82
63552;BME280;49698;48.072;7.800;2022-12-17T04:03:45;99975.97;;;-4.24;96.17
63552;BME280;49698;48.072;7.800;2022-12-17T04:06:41;99969.72;;;-4.23;95.64
63552;BME280;49698;48.072;7.800;2022-12-17T04:09:26;99972.81;;;-4.19;95.87
63552;BME280;49698;48.072;7.800;2022-12-17T04:12:12;99971.66;;;-4.16;96.18
63552;BME280;49698;48.072;7.800;2022-12-17T04:15:06;99968.03;;;-4.15;95.76
63552;BME280;49698;48.072;7.800;2022-12-17T04:17:52;99973.47;;;-4.17;95.89
63552;BME280;49698;48.072;7.800;2022-12-17T04:20:37;99979.25;;;-4.22;96.10
63552;BME280;49698;48.072;7.800;2022-12-17T04:23:25;99978.94;;;-4.27;96.28
63552;BME280;49698;48.072;7.800;2022-12-17T04:26:10;99985.19;;;-4.28;96.20
63552;BME280;49698;48.072;7.800;2022-12-17T04:28:56;99985.50;;;-4.31;95.96
63552;BME280;49698;48.072;7.800;2022-12-17T04:31:41;99977.34;;;-4.36;96.11
63552;BME280;49698;48.072;7.800;2022-12-17T04:34:26;99987.38;;;-4.39;95.73
63552;BME280;49698;48.072;7.800;2022-12-17T04:37:12;99987.88;;;-4.44;95.59
63552;BME280;49698;48.072;7.800;2022-12-17T04:39:58;99990.03;;;-4.48;95.79
63552;BME280;49698;48.072;7.800;2022-12-17T04:43:04;99998.75;;;-4.55;95.20
63552;BME280;49698;48.072;7.800;2022-12-17T04:45:50;99996.19;;;-4.72;95.17
63552;BME280;49698;48.072;7.800;2022-12-17T04:48:36;99999.19;;;-4.83;94.95
63552;BME280;49698;48.072;7.800;2022-12-17T04:51:22;99991.63;;;-4.86;95.19
63552;BME280;49698;48.072;7.800;2022-12-17T04:54:07;99998.38;;;-4.83;95.31
63552;BME280;49698;48.072;7.800;2022-12-17T04:56:54;100006.72;;;-4.80;94.90
63552;BME280;49698;48.072;7.800;2022-12-17T04:59:39;99998.66;;;-4.78;94.82
63552;BME280;49698;48.072;7.800;2022-12-17T05:02:25;100007.34;;;-4.78;94.91
63552;BME280;49698;48.072;7.800;2022-12-17T05:05:11;100003.09;;;-4.79;94.63
63552;BME280;49698;48.072;7.800;2022-12-17T05:07:56;100017.66;;;-4.76;94.57
63552;BME280;49698;48.072;7.800;2022-12-17T05:10:42;100016.50;;;-4.74;94.35
63552;BME280;49698;48.072;7.800;2022-12-17T05:13:29;100022.91;;;-4.76;93.84
63552;BME280;49698;48.072;7.800;2022-12-17T05:16:14;100029.66;;;-4.82;94.06
63552;BME280;49698;48.072;7.800;2022-12-17T05:19:00;100025.56;;;-4.84;93.93
63552;BME280;49698;48.072;7.800;2022-12-17T05:21:45;100035.06;;;-4.83;94.03
63552;BME280;49698;48.072;7.800;2022-12-17T05:24:31;100028.66;;;-4.81;94.29
63552;BME280;49698;48.072;7.800;2022-12-17T05:27:16;100031.63;;;-4.76;93.69
63552;BME280;49698;48.072;7.800;2022-12-17T05:30:04;100030.78;;;-4.76;93.94
63552;BME280;49698;48.072;7.800;2022-12-17T05:32:57;100034.25;;;-4.76;93.88
63552;BME280;49698;48.072;7.800;2022-12-17T05:35:42;100029.47;;;-4.72;93.83
63552;BME280;49698;48.072;7.800;2022-12-17T05:38:27;100031.59;;;-4.68;93.90
63552;BME280;49698;48.072;7.800;2022-12-17T05:41:13;100028.31;;;-4.70;93.46
63552;BME280;49698;48.072;7.800;2022-12-17T05:43:58;100025.53;;;-4.68;93.50
63552;BME280;49698;48.072;7.800;2022-12-17T05:46:45;100035.66;;;-4.65;93.84
63552;BME280;49698;48.072;7.800;2022-12-17T05:49:30;100026.97;;;-4.65;93.56
63552;BME280;49698;48.072;7.800;2022-12-17T05:52:16;100028.78;;;-4.66;93.63
63552;BME280;49698;48.072;7.800;2022-12-17T05:55:16;100023.53;;;-4.66;93.42
63552;BME280;49698;48.072;7.800;2022-12-17T05:58:02;100032.88;;;-4.63;93.54
63552;BME280;49698;48.072;7.800;2022-12-17T06:00:48;100030.41;;;-4.65;93.76
63552;BME280;49698;48.072;7.800;2022-12-17T06:03:35;100037.16;;;-4.71;93.47
63552;BME280;49698;48.072;7.800;2022-12-17T06:06:21;100036.19;;;-4.78;93.58
63552;BME280;49698;48.072;7.800;2022-12-17T06:09:06;100042.13;;;-4.84;93.44
63552;BME280;49698;48.072;7.800;2022-12-17T06:11:51;100050.34;;;-4.95;93.43
63552;BME280;49698;48.072;7.800;2022-12-17T06:14:37;100058.22;;;-5.03;93.76
63552;BME280;49698;48.072;7.800;2022-12-17T06:17:23;100058.22;;;-5.03;93.98
63552;BME280;49698;48.072;7.800;2022-12-17T06:20:10;100058.53;;;-5.06;93.53
63552;BME280;49698;48.072;7.800;2022-12-17T06:22:59;100059.03;;;-5.11;93.54
63552;BME280;49698;48.072;7.800;2022-12-17T06:25:44;100064.59;;;-5.06;93.95
63552;BME280;49698;48.072;7.800;2022-12-17T06:28:30;100066.09;;;-5.03;93.44
63552;BME280;49698;48.072;7.800;2022-12-17T06:31:15;100071.97;;;-5.01;93.57
63552;BME280;49698;48.072;7.800;2022-12-17T06:34:01;100065.09;;;-5.02;93.23
63552;BME280;49698;48.072;7.800;2022-12-17T06:36:48;100079.19;;;-5.03;92.98
63552;BME280;49698;48.072;7.800;2022-12-17T06:39:33;100089.69;;;-5.03;93.04
63552;BME280;49698;48.072;7.800;2022-12-17T06:42:19;100094.91;;;-5.03;92.98
63552;BME280;49698;48.072;7.800;2022-12-17T06:45:05;100104.06;;;-5.07;92.93
63552;BME280;49698;48.072;7.800;2022-12-17T06:47:51;100099.19;;;-5.10;93.27
63552;BME280;49698;48.072;7.800;2022-12-17T06:50:37;100108.19;;;-5.13;93.41
63552;BME280;49698;48.072;7.800;2022-12-17T06:53:24;100115.22;;;-5.13;93.20
63552;BME280;49698;48.072;7.800;2022-12-17T06:56:09;100112.59;;;-5.13;93.19
63552;BME280;49698;48.072;7.800;2022-12-17T06:58:54;100115.53;;;-5.17;92.90
63552;BME280;49698;48.072;7.800;2022-12-17T07:01:40;100115.03;;;-5.20;93.07
63552;BME280;49698;48.072;7.800;2022-12-17T07:04:25;100111.28;;;-5.26;92.72
63552;BME280;49698;48.072;7.800;2022-12-17T07:07:11;100118.31;;;-5.34;92.65
63552;BME280;49698;48.072;7.800;2022-12-17T07:09:58;100123.06;;;-5.38;92.93
63552;BME280;49698;48.072;7.800;2022-12-17T07:12:43;100124.53;;;-5.44;92.62
63552;BME280;49698;48.072;7.800;2022-12-17T07:15:31;100130.44;;;-5.50;92.78
63552;BME280;49698;48.072;7.800;2022-12-17T07:18:16;100138.09;;;-5.48;93.01
63552;BME280;49698;48.072;7.800;2022-12-17T07:21:02;100155.47;;;-5.47;92.61
63552;BME280;49698;48.072;7.800;2022-12-17T07:23:47;100150.22;;;-5.47;92.86
63552;BME280;49698;48.072;7.800;2022-12-17T07:26:34;100147.78;;;-5.49;92.95
63552;BME280;49698;48.072;7.800;2022-12-17T07:29:20;100155.47;;;-5.47;92.93
63552;BME280;49698;48.072;7.800;2022-12-17T07:32:06;100161.19;;;-5.44;92.40
63552;BME280;49698;48.072;7.800;2022-12-17T07:35:06;100166.13;;;-5.41;92.28
63552;BME280;49698;48.072;7.800;2022-12-17T07:37:57;100163.84;;;-5.35;91.97
63552;BME280;49698;48.072;7.800;2022-12-17T07:40:43;100181.69;;;-5.31;91.89
63552;BME280;49698;48.072;7.800;2022-12-17T07:43:30;100186.94;;;-5.31;91.53
63552;BME280;49698;48.072;7.800;2022-12-17T07:46:18;100190.84;;;-5.35;91.82
63552;BME280;49698;48.072;7.800;2022-12-17T07:49:04;100192.50;;;-5.34;91.32
63552;BME280;49698;48.072;7.800;2022-12-17T07:51:51;100206.41;;;-5.42;91.83
63552;BME280;49698;48.072;7.800;2022-12-17T07:54:36;100201.16;;;-5.50;91.58
63552;BME280;49698;48.072;7.800;2022-12-17T07:57:22;100209.81;;;-5.49;91.86
63552;BME280;49698;48.072;7.800;2022-12-17T08:00:10;100216.38;;;-5.45;91.26
63552;BME280;49698;48.072;7.800;2022-12-17T08:02:56;100219.66;;;-5.43;91.50
63552;BME280;49698;48.072;7.800;2022-12-17T08:05:42;100218.03;;;-5.36;91.56
63552;BME280;49698;48.072;7.800;2022-12-17T08:08:27;100222.31;;;-5.27;91.26
63552;BME280;49698;48.072;7.800;2022-12-17T08:11:13;100225.13;;;-5.20;91.22
63552;BME280;49698;48.072;7.800;2022-12-17T08:13:58;100227.25;;;-5.16;91.20
63552;BME280;49698;48.072;7.800;2022-12-17T08:16:45;100238.09;;;-5.10;91.06
63552;BME280;49698;48.072;7.800;2022-12-17T08:19:31;100243.66;;;-5.05;90.95
63552;BME280;49698;48.072;7.800;2022-12-17T08:22:16;100249.09;;;-4.99;90.67
63552;BME280;49698;48.072;7.800;2022-12-17T08:25:02;100249.59;;;-4.95;90.72
63552;BME280;49698;48.072;7.800;2022-12-17T08:27:54;100246.00;;;-4.94;90.92
63552;BME280;49698;48.072;7.800;2022-12-17T08:30:52;100247.47;;;-4.92;90.72
63552;BME280;49698;48.072;7.800;2022-12-17T08:33:39;100244.84;;;-4.92;90.71
63552;BME280;49698;48.072;7.800;2022-12-17T08:36:26;100251.22;;;-4.94;91.21
63552;BME280;49698;48.072;7.800;2022-12-17T08:39:11;100242.19;;;-5.00;91.40
63552;BME280;49698;48.072;7.800;2022-12-17T08:41:56;100246.31;;;-4.97;91.67
63552;BME280;49698;48.072;7.800;2022-12-17T08:44:42;100248.28;;;-4.91;91.39
63552;BME280;49698;48.072;7.800;2022-12-17T08:47:29;100251.91;;;-4.84;91.16
63552;BME280;49698;48.072;7.800;2022-12-17T08:50:17;100245.50;;;-4.81;91.00
63552;BME280;49698;48.072;7.800;2022-12-17T08:53:03;100244.69;;;-4.82;90.59
63552;BME280;49698;48.072;7.800;2022-12-17T08:55:48;100250.25;;;-4.85;90.26
63552;BME280;49698;48.072;7.800;2022-12-17T08:58:34;100248.44;;;-4.93;90.87
63552;BME280;49698;48.072;7.800;2022-12-17T09:01:23;100247.94;;;-4.96;90.84
63552;BME280;49698;48.072;7.800;2022-12-17T09:04:09;100248.44;;;-4.93;90.88
63552;BME280;49698;48.072;7.800;2022-12-17T09:06:55;100250.56;;;-4.88;91.05
63552;BME280;49698;48.072;7.800;2022-12-17T09:09:41;100243.69;;;-4.89;91.08
63552;BME280;49698;48.072;7.800;2022-12-17T09:12:26;100245.38;;;-4.80;90.83
63552;BME280;49698;48.072;7.800;2022-12-17T09:15:26;100251.44;;;-4.71;90.74
63552;BME280;49698;48.072;7.800;2022-12-17T09:18:11;100256.84;;;-4.56;90.38
63552;BME280;49698;48.072;7.800;2022-12-17T09:20:57;100258.97;;;-4.44;89.95
63552;BME280;49698;48.072;7.800;2022-12-17T09:23:44;100261.09;;;-4.39;89.78
63552;BME280;49698;48.072;7.800;2022-12-17T09:26:29;100256.34;;;-4.35;89.25
63552;BME280;49698;48.072;7.800;2022-12-17T09:29:15;100265.34;;;-4.30;88.82
63552;BME280;49698;48.072;7.800;2022-12-17T09:32:00;100278.50;;;-4.22;88.63
63552;BME280;49698;48.072;7.800;2022-12-17T09:34:46;100276.53;;;-4.28;88.36
63552;BME280;49698;48.072;7.800;2022-12-17T09:37:31;100269.28;;;-4.34;88.85
63552;BME280;49698;48.072;7.800;2022-12-17T09:40:21;100273.91;;;-4.28;88.63
63552;BME280;49698;48.072;7.800;2022-12-17T09:43:20;100284.38;;;-4.20;88.35
63552;BME280;49698;48.072;7.800;2022-12-17T09:46:19;100286.69;;;-4.16;88.01
63552;BME280;49698;48.072;7.800;2022-12-17T09:49:15;100288.47;;;-4.09;88.16
63552;BME280;49698;48.072;7.800;2022-12-17T09:52:03;100279.94;;;-4.03;87.90
63552;BME280;49698;48.072;7.800;2022-12-17T09:54:55;100283.03;;;-3.99;87.46
63552;BME280;49698;48.072;7.800;2022-12-17T09:57:40;100287.00;;;-4.03;87.71
63552;BME280;49698;48.072;7.800;2022-12-17T10:00:27;100275.53;;;-4.02;87.39
63552;BME280;49698;48.072;7.800;2022-12-17T10:03:15;100278.78;;;-4.00;87.17
63552;BME280;49698;48.072;7.800;2022-12-17T10:06:07;100287.00;;;-4.03;86.85
63552;BME280;49698;48.072;7.800;2022-12-17T10:08:57;100281.94;;;-4.13;87.42
63552;BME280;49698;48.072;7.800;2022-12-17T10:11:43;100288.31;;;-4.15;87.49
63552;BME280;49698;48.072;7.800;2022-12-17T10:14:30;100278.16;;;-4.19;87.39
63552;BME280;49698;48.072;7.800;2022-12-17T10:17:18;100288.31;;;-4.15;87.43
63552;BME280;49698;48.072;7.800;2022-12-17T10:20:15;100289.97;;;-4.06;87.31
63552;BME280;49698;48.072;7.800;2022-12-17T10:23:02;100290.59;;;-4.04;86.89
63552;BME280;49698;48.072;7.800;2022-12-17T10:25:51;100284.22;;;-4.02;87.08
63552;BME280;49698;48.072;7.800;2022-12-17T10:28:37;100283.22;;;-4.09;87.18
63552;BME280;49698;48.072;7.800;2022-12-17T10:31:26;100289.81;;;-4.21;86.94
63552;BME280;49698;48.072;7.800;2022-12-17T10:34:15;100293.25;;;-4.37;87.72
63552;BME280;49698;48.072;7.800;2022-12-17T10:37:03;100286.03;;;-4.43;88.05
63552;BME280;49698;48.072;7.800;2022-12-17T10:39:57;100288.84;;;-4.45;88.06
63552;BME280;49698;48.072;7.800;2022-12-17T10:42:43;100291.59;;;-4.46;88.27
63552;BME280;49698;48.072;7.800;2022-12-17T10:45:31;100303.25;;;-4.57;88.33
63552;BME280;49698;48.072;7.800;2022-12-17T10:48:21;100308.00;;;-4.60;88.72
63552;BME280;49698;48.072;7.800;2022-12-17T10:51:17;100303.41;;;-4.58;89.08
63552;BME280;49698;48.072;7.800;2022-12-17T10:54:09;100306.84;;;-4.50;88.94
63552;BME280;49698;48.072;7.800;2022-12-17T10:57:00;100304.41;;;-4.51;88.74
63552;BME280;49698;48.072;7.800;2022-12-17T10:59:46;100312.75;;;-4.56;89.01
63552;BME280;49698;48.072;7.800;2022-12-17T11:02:32;100311.59;;;-4.53;89.04
63552;BME280;49698;48.072;7.800;2022-12-17T11:05:24;100305.88;;;-4.57;88.92
63552;BME280;49698;48.072;7.800;2022-12-17T11:08:14;100300.94;;;-4.60;89.19
63552;BME280;49698;48.072;7.800;2022-12-17T11:11:05;100293.56;;;-4.64;89.03
63552;BME280;49698;48.072;7.800;2022-12-17T11:13:51;100291.09;;;-4.66;89.32
63552;BME280;49698;48.072;7.800;2022-12-17T11:16:41;100298.97;;;-4.66;89.20
63552;BME280;49698;48.072;7.800;2022-12-17T11:19:33;100293.56;;;-4.64;89.18
63552;BME280;49698;48.072;7.800;2022-12-17T11:22:31;100291.28;;;-4.68;88.81
63552;BME280;49698;48.072;7.800;2022-12-17T11:25:30;100283.41;;;-4.68;89.15
63552;BME280;49698;48.072;7.800;2022-12-17T11:28:22;100288.34;;;-4.64;88.74
63552;BME280;49698;48.072;7.800;2022-12-17T11:31:29;100288.47;;;-4.66;88.80
63552;BME280;49698;48.072;7.800;2022-12-17T11:34:23;100286.34;;;-4.62;88.93
63552;BME280;49698;48.072;7.800;2022-12-17T11:37:14;100286.34;;;-4.62;88.53
63552;BME280;49698;48.072;7.800;2022-12-17T11:40:16;100291.28;;;-4.68;88.86
63552;BME280;49698;48.072;7.800;2022-12-17T11:43:14;100285.84;;;-4.66;88.62
63552;BME280;49698;48.072;7.800;2022-12-17T11:46:09;100290.78;;;-4.63;88.83
63552;BME280;49698;48.072;7.800;2022-12-17T11:49:07;100291.41;;;-4.61;88.67
63552;BME280;49698;48.072;7.800;2022-12-17T11:52:00;100291.59;;;-4.62;88.65
63552;BME280;49698;48.072;7.800;2022-12-17T11:54:55;100289.47;;;-4.67;88.87
63552;BME280;49698;48.072;7.800;2022-12-17T11:57:50;100295.53;;;-4.67;89.07
63552;BME280;49698;48.072;7.800;2022-12-17T12:00:46;100299.13;;;-4.68;89.10
63552;BME280;49698;48.072;7.800;2022-12-17T12:03:40;100292.22;;;-4.69;88.58
63552;BME280;49698;48.072;7.800;2022-12-17T12:06:39;100291.25;;;-4.76;89.02
63552;BME280;49698;48.072;7.800;2022-12-17T12:09:37;100287.97;;;-4.78;89.17
63552;BME280;49698;48.072;7.800;2022-12-17T12:12:39;100286.97;;;-4.77;88.92
63552;BME280;49698;48.072;7.800;2022-12-17T12:15:38;100288.28;;;-4.81;89.02
63552;BME280;49698;48.072;7.800;2022-12-17T12:18:31;100290.56;;;-4.86;89.37
63552;BME280;49698;48.072;7.800;2022-12-17T12:21:32;100293.69;;;-4.90;89.20
63552;BME280;49698;48.072;7.800;2022-12-17T12:24:46;100299.72;;;-4.98;89.46
63552;BME280;49698;48.072;7.800;2022-12-17T12:27:40;100299.88;;;-5.00;89.30
63552;BME280;49698;48.072;7.800;2022-12-17T12:30:41;100298.44;;;-4.94;89.56
63552;BME280;49698;48.072;7.800;2022-12-17T12:33:32;100299.13;;;-4.84;89.45
63552;BME280;49698;48.072;7.800;2022-12-17T12:36:32;100307.63;;;-4.82;89.41
63552;BME280;49698;48.072;7.800;2022-12-17T12:39:23;100306.50;;;-4.79;89.23
63552;BME280;49698;48.072;7.800;2022-12-17T12:42:16;100299.13;;;-4.84;89.11
63552;BME280;49698;48.072;7.800;2022-12-17T12:45:12;100298.63;;;-4.87;89.23
63552;BME280;49698;48.072;7.800;2022-12-17T12:48:08;100303.81;;;-4.96;89.42
63552;BME280;49698;48.072;7.800;2022-12-17T12:51:02;100297.72;;;-5.04;89.50
63552;BME280;49698;48.072;7.800;2022-12-17T12:53:56;100298.84;;;-5.15;89.30
63552;BME280;49698;48.072;7.800;2022-12-17T12:56:42;100294.09;;;-5.20;89.99
63552;BME280;49698;48.072;7.800;2022-12-17T12:59:29;100291.44;;;-5.28;89.95
63552;BME280;49698;48.072;7.800;2022-12-17T13:02:25;100296.16;;;-5.31;90.18
63552;BME280;49698;48.072;7.800;2022-12-17T13:05:27;100304.19;;;-5.33;90.01
63552;BME280;49698;48.072;7.800;2022-12-17T13:08:02;100296.97;;;-5.31;89.84
63552;BME280;49698;48.072;7.800;2022-12-17T13:10:30;100289.50;;;-5.26;89.83
63552;BME280;49698;48.072;7.800;2022-12-17T13:13:05;100293.91;;;-5.26;89.26
63552;BME280;49698;48.072;7.800;2022-12-17T13:15:40;100289.13;;;-5.31;89.54
63552;BME280;49698;48.072;7.800;2022-12-17T13:18:18;100290.41;;;-5.35;89.68
63552;BME280;49698;48.072;7.800;2022-12-17T13:20:59;100287.47;;;-5.40;89.89
63552;BME280;49698;48.072;7.800;2022-12-17T13:23:30;100307.59;;;-5.41;89.49
63552;BME280;49698;48.072;7.800;2022-12-17T13:26:20;100305.47;;;-5.45;90.05
63552;BME280;49698;48.072;7.800;2022-12-17T13:29:01;100319.84;;;-5.49;90.33
63552;BME280;49698;48.072;7.800;2022-12-17T13:31:32;100317.53;;;-5.52;90.05
63552;BME280;49698;48.072;7.800;2022-12-17T13:34:12;100318.53;;;-5.53;89.58
63552;BME280;49698;48.072;7.800;2022-12-17T13:36:49;100329.00;;;-5.53;89.93
63552;BME280;49698;48.072;7.800;2022-12-17T13:39:35;100322.78;;;-5.52;90.34
63552;BME280;49698;48.072;7.800;2022-12-17T13:42:15;100324.09;;;-5.48;90.14
63552;BME280;49698;48.072;7.800;2022-12-17T13:44:45;100326.41;;;-5.45;89.82
63552;BME280;49698;48.072;7.800;2022-12-17T13:47:19;100322.66;;;-5.43;89.66
63552;BME280;49698;48.072;7.800;2022-12-17T13:49:52;100320.72;;;-5.41;89.65
63552;BME280;49698;48.072;7.800;2022-12-17T13:52:37;100312.19;;;-5.34;89.95
63552;BME280;49698;48.072;7.800;2022-12-17T13:55:07;100305.84;;;-5.32;89.51
63552;BME280;49698;48.072;7.800;2022-12-17T13:57:36;100305.53;;;-5.29;89.56
63552;BME280;49698;48.072;7.800;2022-12-17T14:00:05;100311.28;;;-5.25;89.35
63552;BME280;49698;48.072;7.800;2022-12-17T14:02:38;100312.44;;;-5.20;89.64
63552;BME280;49698;48.072;7.800;2022-12-17T14:05:22;100324.09;;;-5.14;89.47
63552;BME280;49698;48.072;7.800;2022-12-17T14:07:52;100318.69;;;-5.12;88.98
63552;BME280;49698;48.072;7.800;2022-12-17T14:10:21;100319.97;;;-5.17;89.52
63552;BME280;49698;48.072;7.800;2022-12-17T14:12:49;100318.50;;;-5.19;89.47
63552;BME280;49698;48.072;7.800;2022-12-17T14:15:22;100321.59;;;-5.24;89.60
63552;BME280;49698;48.072;7.800;2022-12-17T14:17:52;100322.22;;;-5.30;89.45
63552;BME280;49698;48.072;7.800;2022-12-17T14:20:24;100321.56;;;-5.32;90.13
63552;BME280;49698;48.072;7.800;2022-12-17T14:22:55;100320.22;;;-5.36;89.94
63552;BME280;49698;48.072;7.800;2022-12-17T14:25:29;100329.06;;;-5.37;90.56
63552;BME280;49698;48.072;7.800;2022-12-17T14:28:00;100325.31;;;-5.34;90.52
63552;BME280;49698;48.072;7.800;2022-12-17T14:30:35;100328.09;;;-5.36;90.46
63552;BME280;49698;48.072;7.800;2022-12-17T14:33:24;100320.22;;;-5.36;90.58
63552;BME280;49698;48.072;7.800;2022-12-17T14:35:54;100330.41;;;-5.33;90.73